Time;durP1;ratioP1;P1;durP2;ratioP2;P2;SDS_P1;SDS_P2;PMS_P1;PMS_P2;Temp;Humidity;BMP_temperature;BMP_pressure;BME280_temperature;BME280_humidity;BME280_pressure;Samples;Min_cycle;Max_cycle;Signal;HPM_P1;HPM_P2
2022/04/28 00:00:45;;;;;;;1.70;1.70;;;;;;;16.04;81.47;99448.56;5112557;28;20201;-69
2022/04/28 00:03:14;;;;;;;2.07;1.57;;;;;;;16.01;81.44;99449.56;5111479;28;20206;-69
2022/04/28 00:05:42;;;;;;;3.57;1.90;;;;;;;16.03;81.38;99458.06;5112586;28;20239;-69
2022/04/28 00:08:09;;;;;;;2.07;2.07;;;;;;;16.05;81.07;99456.28;5112375;28;20206;-68
2022/04/28 00:10:38;;;;;;;2.10;2.00;;;;;;;16.07;81.63;99458.75;5111603;28;20218;-69
2022/04/28 00:13:06;;;;;;;3.47;2.33;;;;;;;16.01;81.72;99446.16;5110912;28;20190;-69
2022/04/28 00:15:33;;;;;;;2.80;1.53;;;;;;;16.08;81.56;99460.44;5110519;28;20193;-69
2022/04/28 00:18:00;;;;;;;1.67;1.60;;;;;;;16.09;81.20;99459.53;5112338;28;20198;-69
2022/04/28 00:20:29;;;;;;;2.87;2.50;;;;;;;16.08;81.57;99460.44;5110212;28;20686;-69
2022/04/28 00:22:55;;;;;;;2.33;2.23;;;;;;;16.08;82.29;99460.44;5111768;28;20721;-69
2022/04/28 00:25:23;;;;;;;2.23;1.90;;;;;;;16.07;82.78;99451.00;5111925;28;20205;-69
2022/04/28 00:27:50;;;;;;;2.00;1.90;;;;;;;16.07;82.78;99443.25;5112002;28;20194;-69
2022/04/28 00:30:17;;;;;;;2.40;2.30;;;;;;;16.04;82.71;99446.81;5111988;28;20678;-68
2022/04/28 00:32:44;;;;;;;2.20;2.10;;;;;;;16.00;82.65;99447.06;5111303;28;20197;-69
2022/04/28 00:35:11;;;;;;;2.07;1.97;;;;;;;15.97;82.95;99447.22;5112390;28;20659;-69
2022/04/28 00:37:40;;;;;;;1.80;1.70;;;;;;;15.96;83.04;99451.53;5111598;28;20192;-69
2022/04/28 00:40:08;;;;;;;2.57;2.47;;;;;;;15.94;83.10;99447.38;5111929;28;20261;-69
2022/04/28 00:42:35;;;;;;;1.90;1.80;;;;;;;15.93;83.01;99451.69;5110917;28;20192;-69
2022/04/28 00:45:01;;;;;;;2.60;2.40;;;;;;;15.92;83.40;99449.22;5111905;28;20195;-69
2022/04/28 00:50:38;;;;;;;3.07;2.20;;;;;;;15.89;83.30;99449.38;5111466;28;20194;-69
2022/04/28 00:53:17;;;;;;;4.50;2.17;;;;;;;15.75;83.31;99443.16;5033145;28;20685;-68
2022/04/28 00:55:44;;;;;;;2.23;2.03;;;;;;;15.75;83.74;99450.91;5048856;28;20224;-68
2022/04/28 00:58:11;;;;;;;1.70;1.60;;;;;;;15.79;83.66;99455.91;5077197;28;20202;-69
2022/04/28 01:00:39;;;;;;;1.70;1.70;;;;;;;15.75;83.50;99463.81;5111561;28;20198;-69
2022/04/28 01:03:06;;;;;;;2.80;1.93;;;;;;;15.69;83.54;99453.81;5109808;28;20199;-69
2022/04/28 01:05:33;;;;;;;2.90;1.93;;;;;;;15.66;83.35;99447.94;5110425;28;20677;-69
2022/04/28 01:08:00;;;;;;;1.93;1.83;;;;;;;15.62;83.66;99452.44;5111518;28;20667;-69
2022/04/28 01:10:28;;;;;;;2.17;2.07;;;;;;;15.55;83.86;99451.06;5111473;28;20237;-69
2022/04/28 01:12:55;;;;;;;2.10;2.00;;;;;;;15.50;84.33;99458.22;5110967;28;20702;-68
2022/04/28 01:15:22;;;;;;;2.17;2.07;;;;;;;15.39;84.68;99439.78;5111595;28;20221;-69
2022/04/28 01:17:49;;;;;;;2.23;2.13;;;;;;;15.41;84.99;99456.00;5111106;28;20202;-68
2022/04/28 01:20:16;;;;;;;2.30;2.20;;;;;;;15.31;85.70;99447.06;5111379;28;20685;-69
2022/04/28 01:22:44;;;;;;;2.23;2.13;;;;;;;15.22;86.15;99452.66;5108719;28;20204;-69
2022/04/28 01:25:13;;;;;;;2.07;1.97;;;;;;;15.09;86.97;99446.41;5110354;28;20213;-69
2022/04/28 01:27:40;;;;;;;2.47;2.37;;;;;;;14.99;87.82;99445.19;5110360;28;20201;-68
2022/04/28 01:30:13;;;;;;;2.50;2.30;;;;;;;14.96;88.30;99448.72;5109467;28;20199;-69
2022/04/28 01:32:40;;;;;;;2.30;2.20;;;;;;;14.97;88.38;99441.81;5110804;28;20190;-68
2022/04/28 01:35:09;;;;;;;2.40;2.30;;;;;;;14.88;88.76;99432.78;5110952;28;20288;-69
2022/04/28 01:37:36;;;;;;;2.20;2.10;;;;;;;14.87;89.16;99436.25;5111089;28;20195;-68
2022/04/28 01:40:06;;;;;;;2.40;2.30;;;;;;;14.89;89.39;99449.13;5110422;28;20186;-69
2022/04/28 01:42:33;;;;;;;2.23;1.93;;;;;;;14.89;89.61;99452.53;5110710;28;20251;-69
2022/04/28 01:44:59;;;;;;;1.90;1.80;;;;;;;14.86;89.73;99450.09;5108649;28;20199;-69
2022/04/28 01:47:26;;;;;;;2.57;2.47;;;;;;;14.83;89.88;99446.81;5111175;28;20199;-69
2022/04/28 01:49:53;;;;;;;2.73;2.57;;;;;;;14.82;90.28;99452.88;5109330;28;20238;-69
2022/04/28 01:55:06;;;;;;;2.63;2.43;;;;;;;14.77;90.74;99444.50;5107846;28;20695;-69
2022/04/28 01:57:33;;;;;;;2.60;2.50;;;;;;;14.78;90.92;99447.03;5109128;28;20203;-69
2022/04/28 02:00:00;;;;;;;2.40;2.30;;;;;;;14.78;91.18;99446.19;5109076;28;20202;-69
2022/04/28 02:02:28;;;;;;;2.57;2.47;;;;;;;14.71;91.19;99446.47;5109561;28;20198;-69
2022/04/28 02:04:58;;;;;;;2.47;2.27;;;;;;;14.70;91.52;99444.78;5109695;28;20213;-68
2022/04/28 02:07:25;;;;;;;2.20;2.10;;;;;;;14.71;91.39;99443.06;5110855;28;20220;-69
2022/04/28 02:09:52;;;;;;;2.60;2.50;;;;;;;14.69;91.75;99448.31;5110685;28;20217;-69
2022/04/28 02:12:20;;;;;;;2.50;2.40;;;;;;;14.69;91.63;99452.63;5109793;28;20221;-69
2022/04/28 02:14:47;;;;;;;2.60;2.50;;;;;;;14.60;91.33;99443.53;5110219;28;20206;-69
2022/04/28 02:17:18;;;;;;;2.43;2.33;;;;;;;14.66;91.47;99455.34;5110499;28;20205;-69
2022/04/28 02:19:45;;;;;;;3.87;3.63;;;;;;;14.61;91.90;99437.47;5110614;28;20195;-69
2022/04/28 02:22:12;;;;;;;3.47;3.17;;;;;;;14.58;91.69;99435.03;5110725;28;20205;-69
2022/04/28 02:24:39;;;;;;;2.60;2.07;;;;;;;14.63;91.96;99450.31;5109909;28;20244;-69
2022/04/28 02:27:07;;;;;;;2.33;2.23;;;;;;;14.62;92.09;99446.91;5110517;28;20202;-69
2022/04/28 02:29:35;;;;;;;2.63;2.53;;;;;;;14.61;92.22;99450.38;5110537;28;20195;-69
2022/04/28 02:32:03;;;;;;;2.63;2.43;;;;;;;14.62;92.33;99446.06;5110518;28;20214;-69
2022/04/28 02:34:30;;;;;;;2.67;2.47;;;;;;;14.60;92.36;99442.72;5110240;28;20195;-69
2022/04/28 02:36:58;;;;;;;3.13;2.13;;;;;;;14.59;92.69;99438.47;5110629;28;20353;-68
2022/04/28 02:39:26;;;;;;;3.43;3.13;;;;;;;14.59;92.78;99439.31;5111321;28;20206;-69
2022/04/28 02:41:54;;;;;;;3.10;2.90;;;;;;;14.55;92.74;99445.50;5112891;28;20216;-69
2022/04/28 02:44:22;;;;;;;6.10;2.80;;;;;;;14.48;93.02;99433.78;5113342;28;20237;-69
2022/04/28 02:46:50;;;;;;;5.07;3.03;;;;;;;14.52;93.19;99444.81;5114097;28;20586;-69
2022/04/28 02:49:17;;;;;;;2.57;2.47;;;;;;;14.52;93.39;99447.38;5114014;28;20201;-69
2022/04/28 02:51:44;;;;;;;7.33;5.77;;;;;;;14.42;93.61;99443.53;5113240;28;20686;-69
2022/04/28 02:54:11;;;;;;;4.63;4.23;;;;;;;14.38;94.12;99442.84;5113504;28;20199;-69
2022/04/28 02:56:38;;;;;;;3.70;3.40;;;;;;;14.35;94.21;99437.81;5113676;28;20225;-68
2022/04/28 02:59:05;;;;;;;4.40;4.10;;;;;;;14.43;94.96;99456.38;5114143;28;20659;-68
2022/04/28 03:01:32;;;;;;;3.57;3.27;;;;;;;14.45;95.06;99459.72;5112400;28;20195;-69
2022/04/28 03:04:00;;;;;;;3.50;3.30;;;;;;;14.42;95.54;99459.00;5113186;28;20207;-69
2022/04/28 03:11:58;;;;;;;2.67;2.57;;;;;;;14.34;95.49;99467.13;5113634;28;20229;-68
2022/04/28 03:14:25;;;;;;;2.57;2.23;;;;;;;14.35;95.41;99471.34;5112910;28;20199;-69
2022/04/28 03:16:51;;;;;;;2.30;2.20;;;;;;;14.33;95.25;99470.59;5113599;28;20191;-69
2022/04/28 03:19:20;;;;;;;2.50;2.33;;;;;;;14.35;94.80;99476.50;5113304;28;20210;-68
2022/04/28 03:21:46;;;;;;;2.27;2.17;;;;;;;14.36;94.96;99475.59;5112922;28;20191;-69
2022/04/28 03:24:13;;;;;;;2.33;2.23;;;;;;;14.35;95.05;99479.09;5112701;28;20195;-68
2022/04/28 03:26:40;;;;;;;2.73;2.63;;;;;;;14.33;95.77;99482.59;5113297;28;20206;-69
2022/04/28 03:29:07;;;;;;;2.60;2.50;;;;;;;14.22;95.71;99488.22;5113155;28;20198;-68
2022/04/28 03:31:34;;;;;;;2.97;2.77;;;;;;;14.23;96.22;99495.06;5112848;28;20214;-68
2022/04/28 03:34:01;;;;;;;7.80;3.03;;;;;;;14.25;96.43;99498.41;5112458;28;20202;-69
2022/04/28 03:39:13;;;;;;;4.10;3.53;;;;;;;14.27;96.88;99517.25;5111123;28;20205;-68
2022/04/28 03:41:41;;;;;;;5.33;2.80;;;;;;;14.27;97.18;99527.56;5111182;28;20246;-69
2022/04/28 03:44:08;;;;;;;3.47;3.30;;;;;;;14.24;97.69;99519.13;5111610;28;20202;-69
2022/04/28 03:46:35;;;;;;;3.30;3.10;;;;;;;14.30;97.72;99532.59;5112694;28;20195;-68
2022/04/28 03:49:02;;;;;;;5.30;3.23;;;;;;;14.29;98.03;99538.63;5112689;28;20217;-69
2022/04/28 03:51:31;;;;;;;7.70;4.17;;;;;;;14.33;98.23;99536.75;5112659;28;20219;-67
2022/04/28 03:54:00;;;;;;;3.47;3.07;;;;;;;14.33;98.65;99542.78;5111433;28;20203;-69
2022/04/28 03:56:30;;;;;;;5.47;3.40;;;;;;;14.35;98.61;99546.13;5111865;28;20197;-69
2022/04/28 03:58:57;;;;;;;4.90;4.23;;;;;;;14.38;98.41;99551.16;5110825;28;20202;-69
2022/04/28 04:01:24;;;;;;;3.90;3.70;;;;;;;14.38;98.67;99546.00;5110685;28;20205;-69
2022/04/28 04:03:51;;;;;;;4.73;4.50;;;;;;;14.28;98.76;99529.22;5109812;28;20191;-68
2022/04/28 04:06:17;;;;;;;7.03;4.00;;;;;;;14.42;98.90;99557.03;5110980;28;20559;-68
2022/04/28 04:08:46;;;;;;;4.87;4.50;;;;;;;14.41;98.81;99560.53;5111112;28;20772;-69
2022/04/28 04:11:13;;;;;;;4.47;4.27;;;;;;;14.38;99.02;99556.31;5111378;28;20211;-69
2022/04/28 04:13:40;;;;;;;5.00;4.60;;;;;;;14.41;99.12;99568.28;5111459;28;20210;-68
2022/04/28 04:16:08;;;;;;;10.17;6.07;;;;;;;14.41;99.09;99566.50;5111275;28;20190;-69
2022/04/28 04:18:34;;;;;;;8.10;7.33;;;;;;;14.48;98.96;99573.06;5108425;28;20199;-69
2022/04/28 04:21:01;;;;;;;14.00;11.13;;;;;;;14.53;98.43;99576.31;5111895;28;20206;-69
2022/04/28 04:23:28;;;;;;;25.97;19.23;;;;;;;14.59;98.56;99580.34;5112223;28;20594;-69
2022/04/28 04:25:58;;;;;;;29.83;22.63;;;;;;;14.64;97.99;99580.97;5109546;28;20686;-69
2022/04/28 04:28:25;;;;;;;27.63;20.57;;;;;;;14.73;97.98;99578.84;5110050;28;20198;-68
2022/04/28 04:33:36;;;;;;;24.07;17.87;;;;;;;14.99;97.15;99579.44;5109378;28;20602;-69
2022/04/28 04:36:04;;;;;;;16.83;14.73;;;;;;;15.13;97.29;99577.06;5108771;28;20198;-69
2022/04/28 04:38:31;;;;;;;15.20;13.77;;;;;;;15.30;95.71;99578.84;5111148;28;20213;-69
2022/04/28 04:40:59;;;;;;;13.60;12.23;;;;;;;15.33;94.65;99561.47;5111628;28;20229;-68
2022/04/28 04:43:26;;;;;;;13.50;11.80;;;;;;;15.55;94.96;99580.25;5108214;28;20198;-69
2022/04/28 04:45:53;;;;;;;11.60;10.60;;;;;;;15.69;93.02;99577.84;5106318;28;20221;-68
2022/04/28 04:48:21;;;;;;;10.07;9.30;;;;;;;15.85;92.33;99577.94;5111475;28;20191;-69
2022/04/28 04:50:48;;;;;;;10.70;9.80;;;;;;;16.06;92.51;99579.47;5111664;28;20739;-69
2022/04/28 04:53:15;;;;;;;8.93;8.23;;;;;;;16.28;91.73;99587.81;5110340;28;20228;-68
2022/04/28 04:55:42;;;;;;;8.97;8.33;;;;;;;16.54;90.24;99589.09;5111969;28;20574;-68
2022/04/28 04:58:10;;;;;;;9.33;8.60;;;;;;;16.81;89.57;99597.22;5111561;28;20585;-68
2022/04/28 05:00:37;;;;;;;8.73;8.13;;;;;;;17.02;87.83;99595.25;5111731;28;20207;-69
2022/04/28 05:03:04;;;;;;;7.90;7.17;;;;;;;17.26;87.06;99596.50;5110143;28;20574;-68
2022/04/28 05:05:31;;;;;;;6.37;5.87;;;;;;;17.46;85.17;99601.44;5111601;28;20198;-69
2022/04/28 05:07:58;;;;;;;6.80;6.27;;;;;;;17.64;85.28;99600.44;5111504;28;20195;-68
2022/04/28 05:10:25;;;;;;;11.57;7.47;;;;;;;17.89;84.54;99609.47;5111444;28;20194;-69
2022/04/28 05:12:52;;;;;;;7.07;6.57;;;;;;;18.10;83.27;99614.25;5110416;28;20602;-68
2022/04/28 05:15:20;;;;;;;6.20;5.90;;;;;;;18.33;81.54;99607.72;5111050;28;20205;-68
2022/04/28 05:17:47;;;;;;;6.07;5.47;;;;;;;18.40;79.95;99596.06;5111305;28;20198;-69
2022/04/28 05:20:14;;;;;;;5.30;5.00;;;;;;;18.64;80.72;99610.22;5110999;28;20670;-68
2022/04/28 05:22:41;;;;;;;5.27;4.87;;;;;;;18.78;79.15;99612.81;5110670;28;20202;-68
2022/04/28 05:25:08;;;;;;;4.60;4.20;;;;;;;18.98;78.80;99603.00;5110856;28;20198;-67
2022/04/28 05:27:35;;;;;;;4.87;4.57;;;;;;;19.16;75.78;99607.06;5111088;28;20195;-69
2022/04/28 05:30:02;;;;;;;4.33;4.07;;;;;;;19.35;74.71;99611.00;5111156;28;20198;-69
2022/04/28 05:32:30;;;;;;;4.43;3.90;;;;;;;19.42;74.64;99608.88;5110237;28;20669;-68
2022/04/28 05:34:57;;;;;;;4.37;4.07;;;;;;;19.52;74.19;99609.97;5111457;28;20199;-69
2022/04/28 05:37:25;;;;;;;4.10;3.90;;;;;;;19.69;73.41;99616.72;5110542;28;20195;-69
2022/04/28 05:39:52;;;;;;;6.73;4.13;;;;;;;19.78;70.72;99603.94;5110967;28;20195;-71
2022/04/28 05:42:19;;;;;;;5.43;4.33;;;;;;;20.03;70.85;99625.78;5109653;28;20194;-68
2022/04/28 05:47:32;;;;;;;4.47;4.07;;;;;;;19.83;72.27;99630.53;5107439;28;20220;-66
2022/04/28 05:49:59;;;;;;;4.33;4.00;;;;;;;19.86;70.61;99630.31;5106152;28;20219;-66
2022/04/28 05:52:26;;;;;;;8.37;4.00;;;;;;;19.87;71.20;99637.16;5110684;28;20214;-65
2022/04/28 05:54:52;;;;;;;3.77;3.57;;;;;;;20.12;71.21;99635.59;5111241;28;20598;-65
2022/04/28 05:57:19;;;;;;;3.70;3.33;;;;;;;20.28;69.48;99636.28;5111625;28;20206;-65
2022/04/28 05:59:46;;;;;;;4.13;3.83;;;;;;;20.47;68.69;99636.72;5109847;28;20255;-66
2022/04/28 06:02:13;;;;;;;4.60;4.20;;;;;;;20.54;68.44;99638.00;5111299;28;20207;-66
2022/04/28 06:04:41;;;;;;;3.70;3.00;;;;;;;20.62;68.10;99633.09;5108897;28;20667;-72
2022/04/28 06:07:10;;;;;;;2.83;2.73;;;;;;;20.66;65.88;99636.31;5106779;28;20206;-74
2022/04/28 06:09:36;;;;;;;4.60;3.10;;;;;;;20.61;65.68;99638.41;5107626;28;20217;-71
2022/04/28 06:12:04;;;;;;;3.20;2.93;;;;;;;20.79;65.88;99627.56;5109621;28;20220;-72
2022/04/28 06:14:30;;;;;;;2.57;2.40;;;;;;;20.86;64.53;99626.22;5111036;28;20206;-69
2022/04/28 06:16:57;;;;;;;2.57;2.40;;;;;;;20.87;62.82;99630.47;5113338;28;20223;-71
2022/04/28 06:19:25;;;;;;;1.80;1.70;;;;;;;20.60;61.18;99636.75;5111785;27;20195;-70
2022/04/28 06:21:54;;;;;;;2.10;2.00;;;;;;;20.49;62.10;99634.84;5112631;27;20230;-72
2022/04/28 06:24:20;;;;;;;3.40;1.80;;;;;;;20.67;61.13;99638.00;5114790;27;20203;-71
2022/04/28 06:26:47;;;;;;;2.80;2.07;;;;;;;20.74;61.17;99640.06;5113985;27;20709;-72
2022/04/28 06:29:14;;;;;;;2.03;1.93;;;;;;;20.84;61.39;99638.50;5113428;28;20202;-73
2022/04/28 06:31:41;;;;;;;5.07;2.30;;;;;;;20.99;61.34;99636.63;5111884;28;20201;-70
2022/04/28 06:34:08;;;;;;;2.70;2.57;;;;;;;20.92;61.26;99638.81;5111543;28;20204;-71
2022/04/28 06:36:35;;;;;;;3.77;2.40;;;;;;;21.01;62.33;99631.28;5107396;28;20593;-71
2022/04/28 06:39:04;;;;;;;3.97;2.30;;;;;;;21.25;59.29;99619.19;5111113;28;20214;-71
2022/04/28 06:41:31;;;;;;;2.73;2.00;;;;;;;21.62;57.90;99636.50;5110527;28;20223;-69
2022/04/28 06:43:57;;;;;;;5.13;2.43;;;;;;;21.95;58.12;99633.25;5109848;28;20220;-70
2022/04/28 06:46:24;;;;;;;2.80;2.13;;;;;;;22.12;56.90;99635.47;5111536;28;20205;-69
2022/04/28 06:48:51;;;;;;;2.87;2.33;;;;;;;22.37;56.85;99642.31;5114140;27;20554;-69
2022/04/28 06:51:18;;;;;;;2.83;2.07;;;;;;;22.43;54.76;99644.47;5112942;28;20209;-68
2022/04/28 06:53:46;;;;;;;1.63;1.63;;;;;;;22.35;55.47;99644.22;5118002;27;20227;-70
2022/04/28 06:56:14;;;;;;;2.20;1.97;;;;;;;22.62;54.24;99641.31;5111511;28;20260;-68
2022/04/28 06:58:41;;;;;;;2.73;2.00;;;;;;;22.82;53.07;99638.03;5112367;27;20666;-70
2022/04/28 07:01:08;;;;;;;1.90;1.80;;;;;;;22.81;52.77;99637.19;5111164;28;20201;-69
2022/04/28 07:03:35;;;;;;;4.47;1.90;;;;;;;22.92;54.06;99634.59;5109911;28;20198;-69
2022/04/28 07:06:02;;;;;;;2.47;1.70;;;;;;;23.20;53.95;99635.09;5110686;27;20202;-67
2022/04/28 07:08:30;;;;;;;2.40;1.80;;;;;;;23.48;55.34;99631.97;5111317;28;20705;-71
2022/04/28 07:10:58;;;;;;;4.30;1.90;;;;;;;23.52;50.36;99628.16;5111728;27;20201;-70
2022/04/28 07:13:27;;;;;;;2.03;1.40;;;;;;;23.65;51.86;99626.22;5111845;28;20710;-72
2022/04/28 07:15:54;;;;;;;4.77;2.90;;;;;;;23.54;51.88;99626.25;5111790;28;20208;-70
2022/04/28 07:18:21;;;;;;;2.23;2.07;;;;;;;23.66;50.94;99632.28;5112062;28;20201;-69
2022/04/28 07:20:47;;;;;;;1.93;1.83;;;;;;;23.80;51.57;99625.00;5111862;28;20199;-69
2022/04/28 07:23:16;;;;;;;1.60;1.50;;;;;;;24.01;51.07;99631.09;5112234;28;20210;-68
2022/04/28 07:25:42;;;;;;;1.53;1.43;;;;;;;24.01;49.86;99631.09;5109365;28;20208;-68
2022/04/28 07:28:09;;;;;;;1.70;1.60;;;;;;;24.26;52.01;99626.50;5111098;28;20206;-68
2022/04/28 07:30:37;;;;;;;2.47;1.37;;;;;;;24.60;51.34;99629.75;5111084;28;20202;-68
2022/04/28 07:33:04;;;;;;;3.43;1.93;;;;;;;24.78;48.44;99636.88;5111406;28;20230;-69
2022/04/28 07:35:32;;;;;;;1.50;1.40;;;;;;;24.54;47.97;99610.97;5111956;28;20203;-68
2022/04/28 07:37:59;;;;;;;3.10;2.17;;;;;;;24.55;50.59;99628.34;5112416;28;20199;-68
2022/04/28 07:40:26;;;;;;;2.30;1.43;;;;;;;24.53;47.21;99637.28;5111337;28;20231;-68
2022/04/28 07:42:53;;;;;;;3.40;1.67;;;;;;;24.37;49.21;99636.91;5111734;28;20201;-69
2022/04/28 07:45:20;;;;;;;2.07;1.93;;;;;;;23.90;51.22;99630.31;5105830;28;20286;-68
2022/04/28 07:47:49;;;;;;;1.70;1.60;;;;;;;23.85;51.18;99621.97;5107433;28;20238;-68
2022/04/28 07:50:17;;;;;;;1.93;1.83;;;;;;;23.97;50.77;99634.91;5111234;28;20318;-69
2022/04/28 07:52:45;;;;;;;1.73;1.63;;;;;;;24.14;51.33;99630.09;5107933;28;20241;-68
2022/04/28 07:55:12;;;;;;;1.93;1.70;;;;;;;24.33;49.24;99632.91;5111770;27;20199;-69
2022/04/28 07:57:41;;;;;;;1.83;1.73;;;;;;;24.17;48.93;99627.25;5111561;28;20207;-68
2022/04/28 08:00:10;;;;;;;1.70;1.60;;;;;;;24.23;51.13;99629.38;5110586;28;20679;-70
2022/04/28 08:02:37;;;;;;;1.77;1.67;;;;;;;24.28;52.47;99603.59;5110471;28;20571;-70
2022/04/28 08:05:08;;;;;;;2.07;1.93;;;;;;;24.68;49.46;99635.19;5111390;28;20305;-73
2022/04/28 08:07:35;;;;;;;1.90;1.80;;;;;;;24.60;48.61;99622.72;5111258;27;20215;-69
2022/04/28 08:10:05;;;;;;;4.23;1.97;;;;;;;24.57;50.97;99622.97;5107864;28;20580;-72
2022/04/28 08:12:33;;;;;;;1.90;1.80;;;;;;;24.57;51.54;99625.59;5110865;28;20223;-71
2022/04/28 08:15:01;;;;;;;1.60;1.50;;;;;;;24.73;50.86;99627.75;5111086;27;20198;-69
2022/04/28 08:17:28;;;;;;;2.20;2.10;;;;;;;25.05;49.42;99620.59;5108637;28;20202;-71
2022/04/28 08:19:55;;;;;;;1.50;1.40;;;;;;;25.32;48.30;99620.84;5112354;27;20203;-69
2022/04/28 08:22:24;;;;;;;1.80;1.67;;;;;;;25.36;51.81;99621.41;5110482;28;20209;-69
2022/04/28 08:24:51;;;;;;;2.30;2.00;;;;;;;25.59;49.61;99617.59;5111662;28;20195;-69
2022/04/28 08:27:24;;;;;;;1.67;1.57;;;;;;;25.76;50.46;99613.47;5110863;27;20301;-69
2022/04/28 08:29:52;;;;;;;1.83;1.73;;;;;;;25.61;50.42;99618.31;5110668;28;20209;-68
2022/04/28 08:32:19;;;;;;;2.03;1.90;;;;;;;25.79;49.31;99614.03;5113881;27;20198;-69
2022/04/28 08:34:47;;;;;;;3.70;2.23;;;;;;;25.72;47.35;99623.41;5110789;28;20662;-69
2022/04/28 08:37:14;;;;;;;1.70;1.60;;;;;;;25.78;47.04;99620.28;5109257;28;20594;-69
2022/04/28 08:39:43;;;;;;;1.83;1.73;;;;;;;25.74;49.23;99608.38;5110244;28;20224;-68
2022/04/28 08:42:13;;;;;;;2.60;1.87;;;;;;;25.76;47.26;99616.94;5109022;28;20228;-68
2022/04/28 08:44:40;;;;;;;1.87;1.77;;;;;;;25.66;48.41;99618.72;5111073;28;20662;-69
2022/04/28 08:47:09;;;;;;;1.80;1.70;;;;;;;25.58;48.48;99616.78;5111154;28;20286;-68
2022/04/28 08:49:36;;;;;;;1.90;1.80;;;;;;;25.58;46.92;99618.59;5111080;27;20214;-69
2022/04/28 08:52:06;;;;;;;3.30;3.00;;;;;;;25.87;47.88;99611.56;5110420;28;20208;-68
2022/04/28 08:54:36;;;;;;;13.40;3.17;;;;;;;26.02;47.13;99610.16;5106266;28;20211;-68
2022/04/28 08:57:05;;;;;;;2.60;2.50;;;;;;;25.96;51.42;99610.72;5110562;28;20716;-69
2022/04/28 08:59:33;;;;;;;2.60;2.37;;;;;;;26.06;47.89;99616.81;5111155;28;20271;-70
2022/04/28 09:02:00;;;;;;;2.03;1.93;;;;;;;26.27;51.58;99607.97;5111044;28;20203;-69
2022/04/28 09:04:27;;;;;;;2.40;2.20;;;;;;;26.31;48.50;99614.59;5110493;28;20200;-69
2022/04/28 09:06:57;;;;;;;2.07;1.90;;;;;;;26.48;49.69;99609.44;5110536;28;20199;-69
2022/04/28 09:09:26;;;;;;;2.00;1.90;;;;;;;26.55;45.66;99614.97;5111359;28;20284;-69
2022/04/28 09:11:58;;;;;;;2.03;1.93;;;;;;;26.37;41.57;99614.03;5108505;28;20197;-71
2022/04/28 09:14:27;;;;;;;1.67;1.40;;;;;;;26.17;41.79;99612.41;5110258;28;20274;-70
2022/04/28 09:16:58;;;;;;;2.53;1.50;;;;;;;25.67;42.43;99599.38;5110381;28;20213;-70
2022/04/28 09:19:28;;;;;;;2.03;1.67;;;;;;;25.90;43.86;99600.78;5110261;28;20602;-68
2022/04/28 09:21:57;;;;;;;1.77;1.67;;;;;;;25.58;42.45;99602.81;5110533;28;20256;-68
2022/04/28 09:24:26;;;;;;;2.20;1.63;;;;;;;25.50;44.08;99595.63;5106229;28;20725;-69
2022/04/28 09:26:55;;;;;;;1.70;1.60;;;;;;;25.40;43.63;99586.88;5109374;28;20198;-68
2022/04/28 09:29:29;;;;;;;2.07;1.97;;;;;;;25.37;44.78;99591.56;5108282;28;20206;-71
2022/04/28 09:31:58;;;;;;;1.97;1.60;;;;;;;25.47;47.05;99588.00;5110530;28;20202;-69
2022/04/28 09:34:27;;;;;;;1.40;1.40;;;;;;;25.65;47.75;99580.31;5108844;28;20305;-69
2022/04/28 09:36:56;;;;;;;1.80;1.63;;;;;;;25.73;45.74;99592.72;5109361;28;21024;-69
2022/04/28 09:44:56;;;;;;;2.03;1.93;;;;;;;25.15;45.35;99581.28;5103616;28;20696;-69
2022/04/28 09:47:26;;;;;;;2.43;2.07;;;;;;;25.39;45.34;99579.13;5102559;28;20643;-70
2022/04/28 09:49:55;;;;;;;1.87;1.77;;;;;;;25.75;45.01;99578.50;5111246;28;20626;-69
2022/04/28 09:52:29;;;;;;;1.30;1.30;;;;;;;25.79;42.48;99577.25;5111587;28;20206;-70
2022/04/28 09:54:59;;;;;;;2.80;1.87;;;;;;;25.53;42.53;99581.38;5110282;28;20663;-69
2022/04/28 09:57:26;;;;;;;1.63;1.20;;;;;;;25.08;44.31;99580.97;5113629;28;20301;-69
2022/04/28 09:59:55;;;;;;;1.40;1.30;;;;;;;25.12;45.40;99578.91;5113381;28;20202;-69
2022/04/28 10:02:25;;;;;;;2.27;1.50;;;;;;;25.37;44.83;99573.19;5113307;28;20305;-69
2022/04/28 10:04:54;;;;;;;2.20;1.03;;;;;;;25.26;43.00;99581.19;5113011;28;20289;-69
2022/04/28 10:07:23;;;;;;;1.83;1.40;;;;;;;24.84;44.08;99570.84;5110380;27;20757;-69
2022/04/28 10:09:53;;;;;;;1.00;1.00;;;;;;;24.98;45.14;99570.47;5109206;28;20293;-69
2022/04/28 10:12:21;;;;;;;1.40;1.40;;;;;;;24.81;43.70;99557.97;5111900;28;20198;-70
2022/04/28 10:14:49;;;;;;;1.67;1.20;;;;;;;24.87;43.94;99554.84;5109767;28;20254;-70
2022/04/28 10:17:20;;;;;;;1.57;1.43;;;;;;;24.81;45.13;99539.59;5111828;28;20201;-71
2022/04/28 10:19:55;;;;;;;1.50;1.40;;;;;;;24.95;44.62;99539.25;5113576;27;20209;-68
2022/04/28 10:22:29;;;;;;;1.70;1.47;;;;;;;25.28;45.32;99545.13;5113650;28;20197;-70
2022/04/28 10:33:10;;;;;;;1.30;1.20;;;;;;;25.13;44.12;99557.81;5111808;28;20221;-70
2022/04/28 10:35:41;;;;;;;1.23;1.13;;;;;;;25.28;42.34;99559.09;5109852;28;20717;-71
2022/04/28 10:38:14;;;;;;;0.83;0.83;;;;;;;25.31;44.32;99560.59;5112636;28;20281;-70
2022/04/28 10:40:43;;;;;;;1.30;1.23;;;;;;;25.05;43.29;99561.09;5111361;27;20238;-70
2022/04/28 10:43:24;;;;;;;1.47;1.37;;;;;;;24.99;43.83;99539.81;5112252;28;20190;-72
2022/04/28 10:45:52;;;;;;;0.90;0.90;;;;;;;25.07;43.50;99553.91;5108284;28;20206;-72
2022/04/28 10:48:28;;;;;;;1.37;1.27;;;;;;;25.19;44.39;99551.19;5111343;28;20209;-72
2022/04/28 10:51:10;;;;;;;1.73;1.07;;;;;;;25.30;45.79;99551.09;5112637;28;20198;-71
2022/04/28 10:53:56;;;;;;;1.30;1.30;;;;;;;25.41;45.32;99567.53;5110789;28;20309;-66
2022/04/28 10:56:23;;;;;;;1.33;1.33;;;;;;;25.14;45.01;99558.66;5111020;28;20658;-66
2022/04/28 10:58:50;;;;;;;0.93;0.93;;;;;;;25.35;45.28;99572.50;5113223;28;20281;-67
2022/04/28 11:01:26;;;;;;;1.40;1.30;;;;;;;25.13;44.06;99564.84;5111886;28;20206;-67
2022/04/28 11:03:55;;;;;;;4.20;1.57;;;;;;;25.07;44.30;99569.66;5113625;28;20198;-67
2022/04/28 11:06:27;;;;;;;1.73;1.67;;;;;;;24.82;44.84;99572.75;5113170;28;20609;-66
2022/04/28 11:08:56;;;;;;;1.20;1.20;;;;;;;24.81;44.77;99560.59;5109150;28;20207;-66
2022/04/28 11:11:28;;;;;;;1.27;1.17;;;;;;;25.05;45.40;99561.09;5110958;28;20635;-66
2022/04/28 11:13:58;;;;;;;3.67;1.53;;;;;;;25.23;44.83;99561.28;5111474;28;20256;-66
2022/04/28 11:16:27;;;;;;;1.53;1.43;;;;;;;25.32;43.43;99546.53;5110498;28;20222;-66
2022/04/28 11:18:55;;;;;;;1.73;1.63;;;;;;;25.39;44.75;99542.41;5111458;28;20245;-66
2022/04/28 11:21:24;;;;;;;2.33;1.60;;;;;;;25.50;45.17;99545.75;5111615;28;20702;-66
2022/04/28 11:23:53;;;;;;;3.00;1.20;;;;;;;25.47;46.32;99537.28;5111509;28;20220;-66
2022/04/28 11:26:22;;;;;;;4.37;3.17;;;;;;;25.06;43.86;99536.53;5111084;28;20209;-66
2022/04/28 11:28:50;;;;;;;1.80;1.70;;;;;;;24.80;44.94;99532.69;5111603;28;20583;-66
2022/04/28 11:31:19;;;;;;;1.30;1.30;;;;;;;24.85;46.07;99522.66;5111777;28;20565;-66
2022/04/28 11:33:48;;;;;;;1.37;1.23;;;;;;;25.02;45.84;99522.03;5111347;28;20276;-67
2022/04/28 11:36:27;;;;;;;1.50;1.50;;;;;;;25.06;44.93;99526.03;5111384;28;20719;-66
2022/04/28 11:38:57;;;;;;;4.07;1.20;;;;;;;25.02;47.62;99519.41;5110918;28;20295;-68
2022/04/28 11:41:32;;;;;;;2.87;1.40;;;;;;;25.13;45.31;99533.38;5110979;28;20606;-66
2022/04/28 11:44:01;;;;;;;1.33;1.30;;;;;;;24.93;45.83;99529.88;5111237;28;20258;-67
2022/04/28 11:46:29;;;;;;;1.37;1.30;;;;;;;25.14;46.86;99529.78;5111341;28;20199;-66
2022/04/28 11:48:58;;;;;;;5.43;2.47;;;;;;;25.19;46.01;99524.94;5110663;28;20210;-66
2022/04/28 11:51:26;;;;;;;1.17;1.17;;;;;;;25.34;45.92;99526.22;5111623;28;20645;-66
2022/04/28 11:53:54;;;;;;;1.47;1.33;;;;;;;25.43;46.60;99525.38;5110165;28;20620;-66
2022/04/28 11:56:29;;;;;;;5.70;1.70;;;;;;;25.54;47.18;99533.16;5111632;28;20198;-67
2022/04/28 11:58:58;;;;;;;3.63;2.50;;;;;;;25.58;46.26;99539.81;5111430;28;20206;-66
2022/04/28 12:01:30;;;;;;;1.80;1.70;;;;;;;25.56;44.44;99539.09;5111973;28;20210;-67
2022/04/28 12:04:00;;;;;;;1.87;1.67;;;;;;;25.38;44.61;99530.22;5111414;28;20198;-67
2022/04/28 12:06:29;;;;;;;2.30;2.10;;;;;;;25.38;45.72;99536.31;5110656;28;20202;-66
2022/04/28 12:08:58;;;;;;;1.67;1.57;;;;;;;25.45;44.35;99536.59;5110905;28;20209;-67